Crystal, Nevada
Current Conditions -  °F | °C
As of 8:52 AM on Wednesday 26 Nov 2014 (Local Time) from KDRA Reporting Station
Clear Clear  
Wind Chill: 11°   Ceiling: Unl
Heat Index: 11°   Visibility: 10mi
Dew Point: -11°   Wind: 0mph
Humidity: 21%   Direction: NA
Pressure: 30.42"   Gusts: NA
Location:  36.2552°N, 116.039°W
Report Text: KDRA 261652Z AUTO 00000KT 10SM CLR 11/M11 A3042 RMK AO2 SLP291 T01061111
Loading
Personal Weather Stations






























Interactive Weather Map New forecast layout! Learn more

10-Day Weather Forecast

Advertisements
Track Severe Weather on mobile